Terminal Aerodrome Forecast
Issued by NWS Billings, MT

Home | Current Version | Previous Version | Graphics & Text | Print | Product List | Glossary On
Versions: 1 2 3 4 5 6 7 8 9 10 11 12 13 14 15 16 17 18 19 20 21 22 23 24 25 26 27 28 29 30 31
000
FTUS45 KBYZ 270533
TAFMLS
TAF
KMLS 270533Z 2706/2806 VRB06KT P6SM VCSH BKN070 OVC100
     FM271600 32009KT P6SM VCSH BKN040 OVC120
     FM272000 VRB05KT P6SM VCTS BKN050CB OVC100
     FM280400 VRB05KT P6SM BKN050 OVC100=

USA.gov is the U.S. government's official web portal to all federal, state and local government web resources and services.